sensor_id;sensor_type;location;lat;lon;timestamp;P1;durP1;ratioP1;P2;durP2;ratioP2
325;SDS011;150;52.352;14.058;2023-10-13T00:02:00;3.15;;;1.10;;
325;SDS011;150;52.352;14.058;2023-10-13T00:04:30;3.42;;;1.10;;
325;SDS011;150;52.352;14.058;2023-10-13T00:06:58;1.67;;;1.23;;
325;SDS011;150;52.352;14.058;2023-10-13T00:09:27;1.65;;;1.10;;
325;SDS011;150;52.352;14.058;2023-10-13T00:11:57;3.30;;;1.55;;
325;SDS011;150;52.352;14.058;2023-10-13T00:14:25;4.45;;;1.40;;
325;SDS011;150;52.352;14.058;2023-10-13T00:16:59;1.75;;;1.13;;
325;SDS011;150;52.352;14.058;2023-10-13T00:19:34;2.95;;;1.10;;
325;SDS011;150;52.352;14.058;2023-10-13T00:22:10;5.03;;;1.45;;
325;SDS011;150;52.352;14.058;2023-10-13T00:24:41;2.90;;;1.30;;
325;SDS011;150;52.352;14.058;2023-10-13T00:27:10;4.27;;;1.10;;
325;SDS011;150;52.352;14.058;2023-10-13T00:29:55;6.50;;;1.52;;
325;SDS011;150;52.352;14.058;2023-10-13T00:32:36;2.50;;;1.37;;
325;SDS011;150;52.352;14.058;2023-10-13T00:35:07;2.60;;;1.60;;
325;SDS011;150;52.352;14.058;2023-10-13T00:37:36;3.10;;;1.10;;
325;SDS011;150;52.352;14.058;2023-10-13T00:40:09;2.30;;;1.40;;
325;SDS011;150;52.352;14.058;2023-10-13T00:42:56;1.80;;;0.90;;
325;SDS011;150;52.352;14.058;2023-10-13T00:45:45;3.00;;;0.90;;
325;SDS011;150;52.352;14.058;2023-10-13T00:48:13;6.10;;;1.48;;
325;SDS011;150;52.352;14.058;2023-10-13T00:50:41;5.38;;;1.55;;
325;SDS011;150;52.352;14.058;2023-10-13T00:53:07;1.60;;;1.10;;
325;SDS011;150;52.352;14.058;2023-10-13T00:55:34;2.55;;;1.73;;
325;SDS011;150;52.352;14.058;2023-10-13T00:58:06;3.10;;;1.20;;
325;SDS011;150;52.352;14.058;2023-10-13T01:00:37;2.22;;;1.30;;
325;SDS011;150;52.352;14.058;2023-10-13T01:03:13;3.40;;;1.70;;
325;SDS011;150;52.352;14.058;2023-10-13T01:05:40;3.72;;;1.48;;
325;SDS011;150;52.352;14.058;2023-10-13T01:08:07;3.60;;;1.40;;
325;SDS011;150;52.352;14.058;2023-10-13T01:10:36;3.70;;;1.45;;
325;SDS011;150;52.352;14.058;2023-10-13T01:13:02;3.93;;;1.67;;
325;SDS011;150;52.352;14.058;2023-10-13T01:15:29;2.75;;;1.60;;
325;SDS011;150;52.352;14.058;2023-10-13T01:18:05;4.70;;;1.67;;
325;SDS011;150;52.352;14.058;2023-10-13T01:20:37;9.07;;;1.70;;
325;SDS011;150;52.352;14.058;2023-10-13T01:23:11;2.60;;;1.42;;
325;SDS011;150;52.352;14.058;2023-10-13T01:25:43;3.07;;;1.33;;
325;SDS011;150;52.352;14.058;2023-10-13T01:28:09;9.70;;;2.90;;
325;SDS011;150;52.352;14.058;2023-10-13T01:30:40;4.65;;;2.80;;
325;SDS011;150;52.352;14.058;2023-10-13T01:33:06;6.18;;;2.60;;
325;SDS011;150;52.352;14.058;2023-10-13T01:35:34;5.60;;;3.13;;
325;SDS011;150;52.352;14.058;2023-10-13T01:38:01;4.97;;;2.80;;
325;SDS011;150;52.352;14.058;2023-10-13T01:40:29;4.00;;;2.25;;
325;SDS011;150;52.352;14.058;2023-10-13T01:42:58;5.35;;;2.65;;
325;SDS011;150;52.352;14.058;2023-10-13T01:45:25;5.60;;;2.70;;
325;SDS011;150;52.352;14.058;2023-10-13T01:47:54;6.85;;;2.78;;
325;SDS011;150;52.352;14.058;2023-10-13T01:50:20;9.50;;;3.95;;
325;SDS011;150;52.352;14.058;2023-10-13T01:52:53;7.65;;;3.00;;
325;SDS011;150;52.352;14.058;2023-10-13T01:55:37;5.00;;;2.60;;
325;SDS011;150;52.352;14.058;2023-10-13T01:58:07;6.22;;;3.10;;
325;SDS011;150;52.352;14.058;2023-10-13T02:00:39;6.68;;;3.97;;
325;SDS011;150;52.352;14.058;2023-10-13T02:03:07;8.05;;;3.80;;
325;SDS011;150;52.352;14.058;2023-10-13T02:05:39;7.85;;;3.88;;
325;SDS011;150;52.352;14.058;2023-10-13T02:08:08;8.77;;;3.30;;
325;SDS011;150;52.352;14.058;2023-10-13T02:10:43;5.63;;;3.50;;
325;SDS011;150;52.352;14.058;2023-10-13T02:13:11;4.40;;;2.90;;
325;SDS011;150;52.352;14.058;2023-10-13T02:15:42;7.43;;;3.70;;
325;SDS011;150;52.352;14.058;2023-10-13T02:18:09;4.20;;;3.10;;
325;SDS011;150;52.352;14.058;2023-10-13T02:20:36;5.80;;;3.25;;
325;SDS011;150;52.352;14.058;2023-10-13T02:23:08;7.10;;;3.42;;
325;SDS011;150;52.352;14.058;2023-10-13T02:25:36;5.10;;;2.60;;
325;SDS011;150;52.352;14.058;2023-10-13T02:28:12;6.28;;;3.72;;
325;SDS011;150;52.352;14.058;2023-10-13T02:30:47;5.43;;;3.25;;
325;SDS011;150;52.352;14.058;2023-10-13T02:33:15;6.25;;;3.17;;
325;SDS011;150;52.352;14.058;2023-10-13T02:35:47;8.30;;;3.63;;
325;SDS011;150;52.352;14.058;2023-10-13T02:38:18;5.85;;;3.65;;
325;SDS011;150;52.352;14.058;2023-10-13T02:40:52;5.95;;;3.63;;
325;SDS011;150;52.352;14.058;2023-10-13T02:43:22;6.90;;;3.50;;
325;SDS011;150;52.352;14.058;2023-10-13T02:45:53;5.87;;;3.53;;
325;SDS011;150;52.352;14.058;2023-10-13T02:48:24;11.45;;;5.28;;
325;SDS011;150;52.352;14.058;2023-10-13T02:50:55;5.45;;;3.75;;
325;SDS011;150;52.352;14.058;2023-10-13T02:53:22;9.25;;;4.10;;
325;SDS011;150;52.352;14.058;2023-10-13T02:55:49;5.40;;;3.60;;
325;SDS011;150;52.352;14.058;2023-10-13T02:58:16;5.93;;;4.30;;
325;SDS011;150;52.352;14.058;2023-10-13T03:00:45;6.18;;;3.22;;
325;SDS011;150;52.352;14.058;2023-10-13T03:03:11;5.75;;;3.30;;
325;SDS011;150;52.352;14.058;2023-10-13T03:05:39;5.50;;;3.63;;
325;SDS011;150;52.352;14.058;2023-10-13T03:08:07;7.28;;;3.17;;
325;SDS011;150;52.352;14.058;2023-10-13T03:10:36;5.97;;;3.42;;
325;SDS011;150;52.352;14.058;2023-10-13T03:13:05;5.82;;;3.90;;
325;SDS011;150;52.352;14.058;2023-10-13T03:15:33;5.88;;;2.92;;
325;SDS011;150;52.352;14.058;2023-10-13T03:18:02;4.00;;;3.03;;
325;SDS011;150;52.352;14.058;2023-10-13T03:20:29;10.50;;;4.97;;
325;SDS011;150;52.352;14.058;2023-10-13T03:22:57;6.65;;;4.72;;
325;SDS011;150;52.352;14.058;2023-10-13T03:25:24;8.68;;;6.18;;
325;SDS011;150;52.352;14.058;2023-10-13T03:27:54;6.28;;;3.85;;
325;SDS011;150;52.352;14.058;2023-10-13T03:30:29;4.13;;;3.03;;
325;SDS011;150;52.352;14.058;2023-10-13T03:33:03;5.00;;;3.70;;
325;SDS011;150;52.352;14.058;2023-10-13T03:35:33;5.78;;;4.07;;
325;SDS011;150;52.352;14.058;2023-10-13T03:38:07;7.20;;;3.80;;
325;SDS011;150;52.352;14.058;2023-10-13T03:40:42;5.15;;;3.30;;
325;SDS011;150;52.352;14.058;2023-10-13T03:43:13;6.00;;;3.57;;
325;SDS011;150;52.352;14.058;2023-10-13T03:45:42;6.30;;;3.78;;
325;SDS011;150;52.352;14.058;2023-10-13T03:48:14;8.25;;;3.78;;
325;SDS011;150;52.352;14.058;2023-10-13T03:50:53;7.35;;;3.75;;
325;SDS011;150;52.352;14.058;2023-10-13T03:53:28;7.20;;;5.10;;
325;SDS011;150;52.352;14.058;2023-10-13T03:55:58;5.03;;;3.55;;
325;SDS011;150;52.352;14.058;2023-10-13T03:58:34;5.60;;;3.80;;
325;SDS011;150;52.352;14.058;2023-10-13T04:01:00;7.20;;;4.57;;
325;SDS011;150;52.352;14.058;2023-10-13T04:03:29;7.50;;;4.60;;
325;SDS011;150;52.352;14.058;2023-10-13T04:06:00;7.47;;;4.00;;
325;SDS011;150;52.352;14.058;2023-10-13T04:08:31;7.80;;;4.70;;
325;SDS011;150;52.352;14.058;2023-10-13T04:11:35;6.35;;;4.43;;
325;SDS011;150;52.352;14.058;2023-10-13T04:14:28;6.70;;;4.83;;
325;SDS011;150;52.352;14.058;2023-10-13T04:17:08;6.75;;;4.43;;
325;SDS011;150;52.352;14.058;2023-10-13T04:19:40;6.78;;;4.80;;
325;SDS011;150;52.352;14.058;2023-10-13T04:22:32;8.93;;;4.87;;
325;SDS011;150;52.352;14.058;2023-10-13T04:25:14;6.05;;;4.07;;
325;SDS011;150;52.352;14.058;2023-10-13T04:27:55;7.60;;;4.80;;
325;SDS011;150;52.352;14.058;2023-10-13T04:30:44;7.00;;;4.45;;
325;SDS011;150;52.352;14.058;2023-10-13T04:33:24;7.93;;;4.60;;
325;SDS011;150;52.352;14.058;2023-10-13T04:36:07;10.17;;;4.40;;
325;SDS011;150;52.352;14.058;2023-10-13T04:38:43;7.40;;;4.80;;
325;SDS011;150;52.352;14.058;2023-10-13T04:41:21;6.35;;;4.50;;
325;SDS011;150;52.352;14.058;2023-10-13T04:43:49;8.73;;;4.85;;
325;SDS011;150;52.352;14.058;2023-10-13T04:46:22;5.65;;;4.15;;
325;SDS011;150;52.352;14.058;2023-10-13T04:49:05;6.07;;;4.67;;
325;SDS011;150;52.352;14.058;2023-10-13T04:51:52;6.30;;;4.43;;
325;SDS011;150;52.352;14.058;2023-10-13T04:54:25;5.97;;;4.82;;
325;SDS011;150;52.352;14.058;2023-10-13T04:56:51;6.20;;;4.50;;
325;SDS011;150;52.352;14.058;2023-10-13T04:59:35;9.95;;;5.22;;
325;SDS011;150;52.352;14.058;2023-10-13T05:02:23;9.90;;;5.45;;
325;SDS011;150;52.352;14.058;2023-10-13T05:05:07;7.35;;;5.15;;
325;SDS011;150;52.352;14.058;2023-10-13T05:08:09;9.80;;;4.55;;
325;SDS011;150;52.352;14.058;2023-10-13T05:10:53;9.68;;;5.50;;
325;SDS011;150;52.352;14.058;2023-10-13T05:13:39;11.25;;;5.82;;
325;SDS011;150;52.352;14.058;2023-10-13T05:16:24;5.70;;;4.93;;
325;SDS011;150;52.352;14.058;2023-10-13T05:19:09;8.90;;;5.78;;
325;SDS011;150;52.352;14.058;2023-10-13T05:25:35;7.35;;;5.10;;
325;SDS011;150;52.352;14.058;2023-10-13T05:28:28;9.97;;;5.27;;
325;SDS011;150;52.352;14.058;2023-10-13T05:31:17;8.82;;;5.43;;
325;SDS011;150;52.352;14.058;2023-10-13T05:34:02;8.65;;;4.97;;
325;SDS011;150;52.352;14.058;2023-10-13T05:36:48;8.97;;;6.03;;
325;SDS011;150;52.352;14.058;2023-10-13T05:39:35;8.50;;;6.50;;
325;SDS011;150;52.352;14.058;2023-10-13T05:42:21;8.68;;;5.63;;
325;SDS011;150;52.352;14.058;2023-10-13T05:45:06;12.13;;;5.65;;
325;SDS011;150;52.352;14.058;2023-10-13T05:47:50;6.90;;;4.45;;
325;SDS011;150;52.352;14.058;2023-10-13T05:50:36;7.30;;;5.80;;
325;SDS011;150;52.352;14.058;2023-10-13T05:53:21;8.38;;;4.95;;
325;SDS011;150;52.352;14.058;2023-10-13T05:56:10;11.93;;;5.72;;
325;SDS011;150;52.352;14.058;2023-10-13T05:58:56;12.32;;;6.03;;
325;SDS011;150;52.352;14.058;2023-10-13T06:01:40;6.10;;;5.03;;
325;SDS011;150;52.352;14.058;2023-10-13T06:04:24;9.90;;;4.75;;
325;SDS011;150;52.352;14.058;2023-10-13T06:07:09;10.53;;;5.50;;
325;SDS011;150;52.352;14.058;2023-10-13T06:10:01;8.55;;;5.68;;
325;SDS011;150;52.352;14.058;2023-10-13T06:12:48;9.68;;;6.80;;
325;SDS011;150;52.352;14.058;2023-10-13T06:15:36;11.30;;;5.70;;
325;SDS011;150;52.352;14.058;2023-10-13T06:18:20;7.72;;;5.10;;
325;SDS011;150;52.352;14.058;2023-10-13T06:21:05;5.80;;;4.25;;
325;SDS011;150;52.352;14.058;2023-10-13T06:23:49;7.70;;;5.00;;
325;SDS011;150;52.352;14.058;2023-10-13T06:26:33;6.33;;;5.60;;
325;SDS011;150;52.352;14.058;2023-10-13T06:29:20;8.00;;;4.82;;
325;SDS011;150;52.352;14.058;2023-10-13T06:31:48;7.60;;;5.15;;
325;SDS011;150;52.352;14.058;2023-10-13T06:34:15;5.20;;;4.28;;
325;SDS011;150;52.352;14.058;2023-10-13T06:36:45;7.53;;;5.50;;
325;SDS011;150;52.352;14.058;2023-10-13T06:39:13;6.78;;;5.50;;
325;SDS011;150;52.352;14.058;2023-10-13T06:42:01;10.38;;;4.80;;
325;SDS011;150;52.352;14.058;2023-10-13T06:44:28;7.15;;;4.72;;
325;SDS011;150;52.352;14.058;2023-10-13T06:46:58;8.00;;;4.93;;
325;SDS011;150;52.352;14.058;2023-10-13T06:49:29;5.13;;;4.45;;
325;SDS011;150;52.352;14.058;2023-10-13T06:51:57;8.55;;;4.93;;
325;SDS011;150;52.352;14.058;2023-10-13T06:54:25;7.50;;;5.30;;
325;SDS011;150;52.352;14.058;2023-10-13T06:56:53;5.68;;;4.28;;
325;SDS011;150;52.352;14.058;2023-10-13T06:59:20;6.05;;;4.15;;
325;SDS011;150;52.352;14.058;2023-10-13T07:01:59;8.77;;;5.45;;
325;SDS011;150;52.352;14.058;2023-10-13T07:04:33;7.77;;;4.87;;
325;SDS011;150;52.352;14.058;2023-10-13T07:07:04;9.80;;;5.60;;
325;SDS011;150;52.352;14.058;2023-10-13T07:10:07;6.95;;;4.75;;
325;SDS011;150;52.352;14.058;2023-10-13T07:12:41;5.80;;;4.07;;
325;SDS011;150;52.352;14.058;2023-10-13T07:15:26;8.50;;;5.10;;
325;SDS011;150;52.352;14.058;2023-10-13T07:17:58;5.53;;;4.43;;
325;SDS011;150;52.352;14.058;2023-10-13T07:20:37;6.63;;;5.00;;
325;SDS011;150;52.352;14.058;2023-10-13T07:23:10;4.65;;;3.92;;
325;SDS011;150;52.352;14.058;2023-10-13T07:26:13;10.98;;;3.78;;
325;SDS011;150;52.352;14.058;2023-10-13T07:28:51;6.00;;;4.30;;
325;SDS011;150;52.352;14.058;2023-10-13T07:31:21;4.45;;;3.65;;
325;SDS011;150;52.352;14.058;2023-10-13T07:33:53;6.05;;;3.90;;
325;SDS011;150;52.352;14.058;2023-10-13T07:36:30;5.47;;;4.07;;
325;SDS011;150;52.352;14.058;2023-10-13T07:39:16;6.77;;;3.50;;
325;SDS011;150;52.352;14.058;2023-10-13T07:41:50;6.57;;;4.77;;
325;SDS011;150;52.352;14.058;2023-10-13T07:44:28;4.90;;;3.80;;
325;SDS011;150;52.352;14.058;2023-10-13T07:47:13;5.88;;;3.83;;
325;SDS011;150;52.352;14.058;2023-10-13T07:49:44;8.50;;;3.83;;
325;SDS011;150;52.352;14.058;2023-10-13T07:52:20;6.03;;;3.45;;
325;SDS011;150;52.352;14.058;2023-10-13T07:55:07;6.60;;;4.20;;
325;SDS011;150;52.352;14.058;2023-10-13T07:57:45;6.00;;;3.73;;
325;SDS011;150;52.352;14.058;2023-10-13T08:00:21;4.70;;;3.60;;
325;SDS011;150;52.352;14.058;2023-10-13T08:03:05;5.47;;;3.78;;
325;SDS011;150;52.352;14.058;2023-10-13T08:05:53;5.63;;;3.88;;
325;SDS011;150;52.352;14.058;2023-10-13T08:08:23;6.43;;;3.90;;
325;SDS011;150;52.352;14.058;2023-10-13T08:11:05;6.03;;;4.38;;
325;SDS011;150;52.352;14.058;2023-10-13T08:13:49;6.63;;;4.00;;
325;SDS011;150;52.352;14.058;2023-10-13T08:16:23;4.80;;;3.75;;
325;SDS011;150;52.352;14.058;2023-10-13T08:18:55;4.35;;;3.55;;
325;SDS011;150;52.352;14.058;2023-10-13T08:21:27;6.18;;;4.20;;
325;SDS011;150;52.352;14.058;2023-10-13T08:23:59;6.70;;;3.67;;
325;SDS011;150;52.352;14.058;2023-10-13T08:26:39;6.03;;;3.83;;
325;SDS011;150;52.352;14.058;2023-10-13T08:29:40;6.85;;;4.60;;
325;SDS011;150;52.352;14.058;2023-10-13T08:33:09;4.35;;;3.17;;
325;SDS011;150;52.352;14.058;2023-10-13T08:35:54;4.73;;;3.47;;
325;SDS011;150;52.352;14.058;2023-10-13T08:38:42;7.15;;;4.30;;
325;SDS011;150;52.352;14.058;2023-10-13T08:41:40;6.17;;;3.70;;
325;SDS011;150;52.352;14.058;2023-10-13T08:44:29;4.95;;;3.63;;
325;SDS011;150;52.352;14.058;2023-10-13T08:47:01;4.05;;;3.10;;
325;SDS011;150;52.352;14.058;2023-10-13T08:49:32;4.60;;;3.33;;
325;SDS011;150;52.352;14.058;2023-10-13T08:52:26;6.72;;;3.97;;
325;SDS011;150;52.352;14.058;2023-10-13T08:55:18;5.72;;;4.10;;
325;SDS011;150;52.352;14.058;2023-10-13T08:58:17;7.15;;;5.90;;
325;SDS011;150;52.352;14.058;2023-10-13T09:00:54;7.00;;;3.93;;
325;SDS011;150;52.352;14.058;2023-10-13T09:03:23;7.23;;;4.13;;
325;SDS011;150;52.352;14.058;2023-10-13T09:06:03;5.38;;;3.80;;
325;SDS011;150;52.352;14.058;2023-10-13T09:08:31;8.20;;;4.13;;
325;SDS011;150;52.352;14.058;2023-10-13T09:11:11;4.03;;;3.25;;
325;SDS011;150;52.352;14.058;2023-10-13T09:13:37;6.68;;;4.28;;
325;SDS011;150;52.352;14.058;2023-10-13T09:16:11;4.00;;;3.10;;
325;SDS011;150;52.352;14.058;2023-10-13T09:19:07;6.60;;;3.95;;
325;SDS011;150;52.352;14.058;2023-10-13T09:21:39;5.82;;;4.28;;
325;SDS011;150;52.352;14.058;2023-10-13T09:24:19;7.88;;;4.20;;
325;SDS011;150;52.352;14.058;2023-10-13T09:26:59;5.35;;;4.25;;
325;SDS011;150;52.352;14.058;2023-10-13T09:29:26;8.13;;;4.45;;
325;SDS011;150;52.352;14.058;2023-10-13T09:31:58;5.40;;;3.80;;
325;SDS011;150;52.352;14.058;2023-10-13T09:34:25;6.20;;;3.90;;
325;SDS011;150;52.352;14.058;2023-10-13T09:36:55;7.72;;;4.20;;
325;SDS011;150;52.352;14.058;2023-10-13T09:39:26;4.87;;;3.33;;
325;SDS011;150;52.352;14.058;2023-10-13T09:42:01;7.40;;;4.72;;
325;SDS011;150;52.352;14.058;2023-10-13T09:44:28;4.53;;;3.40;;
325;SDS011;150;52.352;14.058;2023-10-13T09:46:57;5.88;;;3.20;;
325;SDS011;150;52.352;14.058;2023-10-13T09:49:34;5.85;;;4.22;;
325;SDS011;150;52.352;14.058;2023-10-13T09:52:14;5.15;;;3.50;;
325;SDS011;150;52.352;14.058;2023-10-13T09:54:48;4.18;;;3.30;;
325;SDS011;150;52.352;14.058;2023-10-13T09:57:26;6.43;;;3.47;;
325;SDS011;150;52.352;14.058;2023-10-13T10:00:00;5.30;;;3.75;;
325;SDS011;150;52.352;14.058;2023-10-13T10:02:32;7.88;;;3.63;;
325;SDS011;150;52.352;14.058;2023-10-13T10:05:00;5.55;;;3.90;;
325;SDS011;150;52.352;14.058;2023-10-13T10:07:37;4.73;;;3.50;;
325;SDS011;150;52.352;14.058;2023-10-13T10:10:06;4.35;;;2.85;;
325;SDS011;150;52.352;14.058;2023-10-13T10:12:37;6.30;;;3.50;;
325;SDS011;150;52.352;14.058;2023-10-13T10:15:16;5.57;;;3.78;;
325;SDS011;150;52.352;14.058;2023-10-13T10:17:55;5.20;;;2.90;;
325;SDS011;150;52.352;14.058;2023-10-13T10:20:27;4.60;;;3.10;;
325;SDS011;150;52.352;14.058;2023-10-13T10:23:05;5.70;;;3.45;;
325;SDS011;150;52.352;14.058;2023-10-13T10:25:35;4.82;;;3.47;;
325;SDS011;150;52.352;14.058;2023-10-13T10:28:04;6.75;;;3.20;;
325;SDS011;150;52.352;14.058;2023-10-13T10:30:32;7.97;;;2.80;;
325;SDS011;150;52.352;14.058;2023-10-13T10:33:03;4.78;;;3.28;;
325;SDS011;150;52.352;14.058;2023-10-13T10:35:36;5.00;;;3.08;;
325;SDS011;150;52.352;14.058;2023-10-13T10:38:07;4.50;;;3.30;;
325;SDS011;150;52.352;14.058;2023-10-13T10:40:48;3.45;;;2.65;;
325;SDS011;150;52.352;14.058;2023-10-13T10:43:19;4.18;;;2.53;;
325;SDS011;150;52.352;14.058;2023-10-13T10:45:46;3.53;;;2.40;;
325;SDS011;150;52.352;14.058;2023-10-13T10:48:15;4.47;;;3.00;;
325;SDS011;150;52.352;14.058;2023-10-13T10:50:53;4.47;;;3.13;;
325;SDS011;150;52.352;14.058;2023-10-13T10:53:20;5.75;;;3.30;;
325;SDS011;150;52.352;14.058;2023-10-13T10:56:03;4.47;;;2.97;;
325;SDS011;150;52.352;14.058;2023-10-13T10:58:34;4.93;;;3.70;;
325;SDS011;150;52.352;14.058;2023-10-13T11:01:09;4.80;;;3.35;;
325;SDS011;150;52.352;14.058;2023-10-13T11:03:37;6.22;;;3.42;;
325;SDS011;150;52.352;14.058;2023-10-13T11:06:07;4.50;;;3.72;;
325;SDS011;150;52.352;14.058;2023-10-13T11:08:42;5.10;;;2.77;;
325;SDS011;150;52.352;14.058;2023-10-13T11:11:28;6.90;;;4.50;;
325;SDS011;150;52.352;14.058;2023-10-13T11:14:02;4.50;;;3.05;;
325;SDS011;150;52.352;14.058;2023-10-13T11:16:48;3.67;;;2.78;;
325;SDS011;150;52.352;14.058;2023-10-13T11:19:18;4.97;;;3.28;;
325;SDS011;150;52.352;14.058;2023-10-13T11:21:50;5.50;;;3.27;;
325;SDS011;150;52.352;14.058;2023-10-13T11:24:18;6.60;;;3.90;;
325;SDS011;150;52.352;14.058;2023-10-13T11:26:46;5.47;;;3.20;;
325;SDS011;150;52.352;14.058;2023-10-13T11:29:31;5.18;;;3.08;;
325;SDS011;150;52.352;14.058;2023-10-13T11:32:07;4.10;;;3.53;;
325;SDS011;150;52.352;14.058;2023-10-13T11:34:33;4.95;;;2.65;;
325;SDS011;150;52.352;14.058;2023-10-13T11:37:05;6.30;;;3.13;;
325;SDS011;150;52.352;14.058;2023-10-13T11:39:46;5.57;;;2.90;;
325;SDS011;150;52.352;14.058;2023-10-13T11:42:13;4.95;;;3.20;;
325;SDS011;150;52.352;14.058;2023-10-13T11:44:43;5.15;;;3.30;;
325;SDS011;150;52.352;14.058;2023-10-13T11:47:10;6.78;;;3.40;;
325;SDS011;150;52.352;14.058;2023-10-13T11:49:53;6.97;;;3.80;;
325;SDS011;150;52.352;14.058;2023-10-13T11:52:24;4.93;;;3.80;;
325;SDS011;150;52.352;14.058;2023-10-13T11:54:54;5.75;;;3.33;;
325;SDS011;150;52.352;14.058;2023-10-13T11:57:21;5.50;;;4.00;;
325;SDS011;150;52.352;14.058;2023-10-13T11:59:49;4.53;;;3.47;;
325;SDS011;150;52.352;14.058;2023-10-13T12:02:44;4.90;;;3.10;;
325;SDS011;150;52.352;14.058;2023-10-13T12:05:28;7.93;;;5.25;;
325;SDS011;150;52.352;14.058;2023-10-13T12:08:14;5.05;;;3.08;;
325;SDS011;150;52.352;14.058;2023-10-13T12:10:46;6.15;;;3.75;;
325;SDS011;150;52.352;14.058;2023-10-13T12:13:24;5.05;;;3.58;;
325;SDS011;150;52.352;14.058;2023-10-13T12:15:52;5.30;;;3.40;;
325;SDS011;150;52.352;14.058;2023-10-13T12:18:21;5.83;;;3.33;;
325;SDS011;150;52.352;14.058;2023-10-13T12:20:48;5.75;;;2.75;;
325;SDS011;150;52.352;14.058;2023-10-13T12:23:15;5.85;;;3.35;;
325;SDS011;150;52.352;14.058;2023-10-13T12:25:42;7.72;;;3.38;;
325;SDS011;150;52.352;14.058;2023-10-13T12:28:25;3.87;;;3.37;;
325;SDS011;150;52.352;14.058;2023-10-13T12:30:55;4.85;;;3.10;;
325;SDS011;150;52.352;14.058;2023-10-13T12:33:24;4.30;;;3.40;;
325;SDS011;150;52.352;14.058;2023-10-13T12:35:55;6.68;;;3.53;;
325;SDS011;150;52.352;14.058;2023-10-13T12:38:49;4.75;;;3.20;;
325;SDS011;150;52.352;14.058;2023-10-13T12:41:33;5.65;;;3.92;;
325;SDS011;150;52.352;14.058;2023-10-13T12:44:17;5.30;;;3.47;;
325;SDS011;150;52.352;14.058;2023-10-13T12:47:03;4.90;;;3.10;;
325;SDS011;150;52.352;14.058;2023-10-13T12:49:49;4.60;;;3.00;;
325;SDS011;150;52.352;14.058;2023-10-13T12:52:23;5.50;;;3.13;;
325;SDS011;150;52.352;14.058;2023-10-13T12:54:51;4.78;;;3.05;;
325;SDS011;150;52.352;14.058;2023-10-13T12:57:31;3.73;;;2.70;;
325;SDS011;150;52.352;14.058;2023-10-13T12:59:58;5.00;;;3.13;;
325;SDS011;150;52.352;14.058;2023-10-13T13:02:26;5.35;;;3.20;;
325;SDS011;150;52.352;14.058;2023-10-13T13:15:09;5.07;;;3.80;;
325;SDS011;150;52.352;14.058;2023-10-13T13:17:38;7.57;;;3.85;;
325;SDS011;150;52.352;14.058;2023-10-13T13:20:05;7.97;;;3.67;;
325;SDS011;150;52.352;14.058;2023-10-13T13:22:37;8.20;;;3.00;;
325;SDS011;150;52.352;14.058;2023-10-13T13:25:04;4.43;;;3.10;;
325;SDS011;150;52.352;14.058;2023-10-13T13:27:34;4.60;;;3.38;;
325;SDS011;150;52.352;14.058;2023-10-13T13:30:02;11.55;;;3.80;;
325;SDS011;150;52.352;14.058;2023-10-13T13:32:38;4.50;;;2.92;;
325;SDS011;150;52.352;14.058;2023-10-13T13:35:06;6.68;;;3.28;;
325;SDS011;150;52.352;14.058;2023-10-13T13:37:39;7.43;;;3.03;;
325;SDS011;150;52.352;14.058;2023-10-13T13:40:08;6.35;;;2.92;;
325;SDS011;150;52.352;14.058;2023-10-13T13:42:46;6.30;;;3.50;;
325;SDS011;150;52.352;14.058;2023-10-13T13:45:22;9.40;;;3.88;;
325;SDS011;150;52.352;14.058;2023-10-13T13:47:57;6.32;;;3.17;;
325;SDS011;150;52.352;14.058;2023-10-13T13:50:39;7.13;;;3.47;;
325;SDS011;150;52.352;14.058;2023-10-13T13:53:09;7.00;;;2.70;;
325;SDS011;150;52.352;14.058;2023-10-13T13:55:59;7.70;;;3.20;;
325;SDS011;150;52.352;14.058;2023-10-13T13:58:37;4.70;;;2.70;;
325;SDS011;150;52.352;14.058;2023-10-13T14:01:15;5.47;;;3.13;;
325;SDS011;150;52.352;14.058;2023-10-13T14:04:01;8.13;;;3.13;;
325;SDS011;150;52.352;14.058;2023-10-13T14:06:49;4.70;;;2.92;;
325;SDS011;150;52.352;14.058;2023-10-13T14:09:25;6.25;;;4.65;;
325;SDS011;150;52.352;14.058;2023-10-13T14:12:11;5.55;;;3.75;;
325;SDS011;150;52.352;14.058;2023-10-13T14:15:04;5.80;;;3.27;;
325;SDS011;150;52.352;14.058;2023-10-13T14:18:03;4.72;;;2.90;;
325;SDS011;150;52.352;14.058;2023-10-13T14:20:44;5.60;;;3.63;;
325;SDS011;150;52.352;14.058;2023-10-13T14:27:19;10.30;;;3.97;;
325;SDS011;150;52.352;14.058;2023-10-13T14:30:09;5.10;;;2.95;;
325;SDS011;150;52.352;14.058;2023-10-13T14:32:44;5.10;;;2.90;;
325;SDS011;150;52.352;14.058;2023-10-13T14:35:51;5.78;;;3.30;;
325;SDS011;150;52.352;14.058;2023-10-13T14:38:50;8.03;;;3.43;;
325;SDS011;150;52.352;14.058;2023-10-13T14:41:46;4.40;;;2.72;;
325;SDS011;150;52.352;14.058;2023-10-13T14:44:24;3.45;;;2.72;;
325;SDS011;150;52.352;14.058;2023-10-13T14:47:03;5.28;;;3.20;;
325;SDS011;150;52.352;14.058;2023-10-13T14:49:43;5.38;;;3.28;;
325;SDS011;150;52.352;14.058;2023-10-13T14:52:32;5.05;;;3.10;;
325;SDS011;150;52.352;14.058;2023-10-13T14:55:28;5.90;;;3.70;;
325;SDS011;150;52.352;14.058;2023-10-13T14:58:11;8.60;;;4.10;;
325;SDS011;150;52.352;14.058;2023-10-13T15:00:51;5.38;;;2.80;;
325;SDS011;150;52.352;14.058;2023-10-13T15:06:19;10.70;;;3.80;;
325;SDS011;150;52.352;14.058;2023-10-13T15:08:56;6.85;;;3.50;;
325;SDS011;150;52.352;14.058;2023-10-13T15:11:28;7.68;;;3.67;;
325;SDS011;150;52.352;14.058;2023-10-13T15:14:10;13.70;;;3.60;;
325;SDS011;150;52.352;14.058;2023-10-13T15:16:49;6.80;;;3.58;;
325;SDS011;150;52.352;14.058;2023-10-13T15:19:35;6.07;;;3.17;;
325;SDS011;150;52.352;14.058;2023-10-13T15:22:27;7.55;;;3.80;;
325;SDS011;150;52.352;14.058;2023-10-13T15:25:27;4.25;;;2.80;;
325;SDS011;150;52.352;14.058;2023-10-13T15:28:17;6.32;;;3.00;;
325;SDS011;150;52.352;14.058;2023-10-13T15:31:05;5.45;;;2.80;;
325;SDS011;150;52.352;14.058;2023-10-13T15:36:54;5.75;;;3.05;;
325;SDS011;150;52.352;14.058;2023-10-13T15:39:43;5.85;;;3.63;;
325;SDS011;150;52.352;14.058;2023-10-13T15:42:20;8.88;;;3.80;;
325;SDS011;150;52.352;14.058;2023-10-13T15:45:09;5.25;;;3.58;;
325;SDS011;150;52.352;14.058;2023-10-13T15:47:55;5.20;;;3.97;;
325;SDS011;150;52.352;14.058;2023-10-13T15:50:41;6.22;;;3.50;;
325;SDS011;150;52.352;14.058;2023-10-13T15:53:20;8.23;;;4.07;;
325;SDS011;150;52.352;14.058;2023-10-13T15:56:02;5.55;;;4.00;;
325;SDS011;150;52.352;14.058;2023-10-13T15:58:52;5.63;;;3.50;;
325;SDS011;150;52.352;14.058;2023-10-13T16:01:39;5.13;;;3.35;;
325;SDS011;150;52.352;14.058;2023-10-13T16:04:28;4.70;;;3.60;;
325;SDS011;150;52.352;14.058;2023-10-13T16:07:09;8.13;;;4.40;;
325;SDS011;150;52.352;14.058;2023-10-13T16:09:51;8.73;;;3.15;;
325;SDS011;150;52.352;14.058;2023-10-13T16:12:30;9.27;;;3.88;;
325;SDS011;150;52.352;14.058;2023-10-13T16:15:16;7.93;;;4.30;;
325;SDS011;150;52.352;14.058;2023-10-13T16:17:50;8.82;;;3.70;;
325;SDS011;150;52.352;14.058;2023-10-13T16:20:32;6.00;;;3.30;;
325;SDS011;150;52.352;14.058;2023-10-13T16:23:11;6.35;;;4.20;;
325;SDS011;150;52.352;14.058;2023-10-13T16:25:44;7.60;;;4.03;;
325;SDS011;150;52.352;14.058;2023-10-13T16:28:17;6.38;;;3.88;;
325;SDS011;150;52.352;14.058;2023-10-13T16:36:43;5.20;;;3.40;;
325;SDS011;150;52.352;14.058;2023-10-13T16:39:38;9.63;;;4.70;;
325;SDS011;150;52.352;14.058;2023-10-13T16:42:26;7.20;;;3.50;;
325;SDS011;150;52.352;14.058;2023-10-13T16:45:06;8.70;;;3.60;;
325;SDS011;150;52.352;14.058;2023-10-13T16:47:46;5.57;;;3.30;;
325;SDS011;150;52.352;14.058;2023-10-13T16:50:23;5.97;;;3.50;;
325;SDS011;150;52.352;14.058;2023-10-13T16:53:31;7.53;;;4.10;;
325;SDS011;150;52.352;14.058;2023-10-13T16:56:13;6.22;;;3.95;;
325;SDS011;150;52.352;14.058;2023-10-13T16:59:03;7.60;;;3.70;;
325;SDS011;150;52.352;14.058;2023-10-13T17:02:03;5.30;;;3.80;;